createdAt,value
2023-05-19T00:00:28.675Z,12.57
2023-05-19T00:03:17.939Z,14.50
2023-05-19T00:06:06.278Z,15.33
2023-05-19T00:08:58.394Z,24.23
2023-05-19T00:11:47.559Z,16.17
2023-05-19T00:14:36.124Z,14.03
2023-05-19T00:17:23.810Z,13.13
2023-05-19T00:20:12.797Z,15.90
2023-05-19T00:22:59.966Z,14.60
2023-05-19T00:25:47.178Z,15.53
2023-05-19T00:28:35.897Z,14.00
2023-05-19T00:31:22.890Z,12.93
2023-05-19T00:34:09.900Z,17.73
2023-05-19T00:36:57.328Z,15.13
2023-05-19T00:39:44.466Z,14.97
2023-05-19T00:42:32.743Z,13.97
2023-05-19T00:45:21.466Z,15.23
2023-05-19T00:48:08.827Z,12.93
2023-05-19T00:51:02.104Z,19.47
2023-05-19T00:53:52.083Z,15.50
2023-05-19T00:56:38.966Z,14.90
2023-05-19T00:59:26.970Z,14.27
2023-05-19T01:02:16.395Z,16.57
2023-05-19T01:05:03.870Z,18.73
2023-05-19T01:07:53.562Z,13.77
2023-05-19T01:10:40.498Z,17.80
2023-05-19T01:13:28.537Z,14.63
2023-05-19T01:16:23.674Z,15.50
2023-05-19T01:19:25.598Z,20.20
2023-05-19T01:22:33.717Z,19.93
2023-05-19T01:25:43.635Z,18.90
2023-05-19T01:28:49.130Z,26.47
2023-05-19T01:31:39.173Z,18.17
2023-05-19T01:34:29.005Z,17.80
2023-05-19T01:37:16.594Z,15.43
2023-05-19T01:40:04.276Z,21.60
2023-05-19T01:42:52.876Z,21.70
2023-05-19T01:45:40.339Z,21.40
2023-05-19T01:48:29.092Z,22.00
2023-05-19T01:51:17.841Z,20.50
2023-05-19T01:54:05.265Z,26.43
2023-05-19T01:56:59.115Z,17.60
2023-05-19T01:59:53.756Z,16.03
2023-05-19T02:02:51.740Z,18.80
2023-05-19T02:05:45.835Z,20.73
2023-05-19T02:08:41.947Z,15.57
2023-05-19T02:11:32.723Z,22.27
2023-05-19T02:14:24.355Z,22.73
2023-05-19T02:17:12.975Z,21.10
2023-05-19T02:20:00.635Z,24.73
2023-05-19T02:22:49.082Z,20.37
2023-05-19T02:25:36.497Z,22.43
2023-05-19T02:28:23.820Z,20.13
2023-05-19T02:31:10.719Z,22.77
2023-05-19T02:33:57.636Z,20.40
2023-05-19T02:36:44.822Z,25.27
2023-05-19T02:39:35.287Z,22.37
2023-05-19T02:42:22.770Z,23.87
2023-05-19T02:45:10.807Z,23.20
2023-05-19T02:48:01.157Z,25.57
2023-05-19T02:50:48.058Z,24.13
2023-05-19T02:53:35.105Z,27.50
2023-05-19T02:56:23.706Z,23.87
2023-05-19T02:59:11.021Z,29.23
2023-05-19T03:02:03.552Z,25.27
2023-05-19T03:04:50.977Z,26.07
2023-05-19T03:07:38.209Z,23.50
2023-05-19T03:10:25.009Z,26.57
2023-05-19T03:13:13.570Z,27.70
2023-05-19T03:16:02.088Z,24.33
2023-05-19T03:18:49.516Z,26.70
2023-05-19T03:21:37.604Z,30.13
2023-05-19T03:24:25.123Z,23.30
2023-05-19T03:27:13.492Z,27.90
2023-05-19T03:30:02.702Z,26.83
2023-05-19T03:32:52.271Z,23.60
2023-05-19T03:35:39.548Z,28.33
2023-05-19T03:38:27.109Z,25.67
2023-05-19T03:41:18.250Z,19.97
2023-05-19T03:44:06.139Z,18.43
2023-05-19T03:46:54.543Z,20.87
2023-05-19T03:50:01.309Z,23.43
2023-05-19T03:53:02.678Z,21.40
2023-05-19T03:55:53.422Z,17.13
2023-05-19T03:58:41.113Z,21.63
2023-05-19T04:01:27.978Z,18.33
2023-05-19T04:04:16.853Z,17.77
2023-05-19T04:07:05.837Z,14.23
2023-05-19T04:09:52.780Z,11.13
2023-05-19T04:12:39.880Z,14.73
2023-05-19T04:15:27.236Z,8.47
2023-05-19T04:18:14.283Z,7.83
2023-05-19T04:21:03.026Z,8.43
2023-05-19T04:23:51.115Z,13.43
2023-05-19T04:26:42.552Z,9.73
2023-05-19T04:29:30.153Z,6.77
2023-05-19T04:32:18.626Z,6.77
2023-05-19T04:35:07.011Z,7.77
2023-05-19T04:37:55.654Z,7.87
2023-05-19T04:40:50.350Z,9.73
2023-05-19T04:43:41.552Z,8.30
2023-05-19T04:46:30.143Z,7.90
2023-05-19T04:49:19.606Z,9.53
2023-05-19T04:52:10.765Z,9.83
2023-05-19T04:54:59.321Z,6.43
2023-05-19T04:57:47.047Z,7.07
2023-05-19T05:00:35.872Z,7.90
2023-05-19T05:03:26.562Z,7.70
2023-05-19T05:06:13.948Z,8.93
2023-05-19T05:09:04.077Z,7.20
2023-05-19T05:11:54.137Z,7.67
2023-05-19T05:14:41.759Z,6.80
2023-05-19T05:17:30.448Z,8.13
2023-05-19T05:20:19.744Z,6.70
2023-05-19T05:23:09.545Z,9.70
2023-05-19T05:25:58.819Z,8.27
2023-05-19T05:28:47.293Z,9.13
2023-05-19T05:31:34.842Z,8.63
2023-05-19T05:34:22.681Z,9.93
2023-05-19T05:37:13.165Z,7.67
2023-05-19T05:40:02.118Z,10.67
2023-05-19T05:42:49.715Z,6.63
2023-05-19T05:45:40.776Z,9.63
2023-05-19T05:48:28.793Z,8.47
2023-05-19T05:51:16.881Z,10.63
2023-05-19T05:54:04.624Z,7.63
2023-05-19T05:56:57.087Z,8.50
2023-05-19T05:59:47.350Z,7.57
2023-05-19T06:02:37.062Z,10.27
2023-05-19T06:05:25.234Z,13.30
2023-05-19T06:08:12.367Z,6.27
2023-05-19T06:10:59.912Z,9.63
2023-05-19T06:13:48.933Z,8.57
2023-05-19T06:16:49.564Z,9.30
2023-05-19T06:19:39.154Z,7.53
2023-05-19T06:22:26.396Z,10.17
2023-05-19T06:25:13.929Z,6.33
2023-05-19T06:28:02.451Z,8.37
2023-05-19T06:30:49.853Z,8.83
2023-05-19T06:33:43.520Z,7.60
2023-05-19T06:36:32.469Z,10.47
2023-05-19T06:39:20.174Z,7.80
2023-05-19T06:42:07.313Z,8.23
2023-05-19T06:45:21.760Z,9.67
2023-05-19T06:48:10.917Z,5.97
2023-05-19T06:50:58.371Z,10.00
2023-05-19T06:53:47.769Z,13.07
2023-05-19T06:56:34.893Z,9.63
2023-05-19T06:59:23.264Z,10.57
2023-05-19T07:02:12.057Z,7.23
2023-05-19T07:04:59.227Z,9.37
2023-05-19T07:07:46.833Z,10.43
2023-05-19T07:10:39.593Z,8.80
2023-05-19T07:13:31.125Z,7.70
2023-05-19T07:16:17.873Z,12.03
2023-05-19T07:19:05.719Z,8.70
2023-05-19T07:21:54.917Z,12.50
2023-05-19T07:24:41.943Z,7.83
2023-05-19T07:27:30.303Z,9.53
2023-05-19T07:30:17.558Z,7.63
2023-05-19T07:33:04.699Z,12.80
2023-05-19T07:35:51.737Z,11.03
2023-05-19T07:38:39.413Z,5.28
2023-05-19T07:41:27.529Z,8.35
2023-05-19T07:44:16.586Z,9.23
2023-05-19T07:47:03.875Z,6.50
2023-05-19T07:49:51.847Z,7.50
2023-05-19T07:52:38.896Z,5.75
2023-05-19T07:55:26.697Z,14.20
2023-05-19T07:58:14.006Z,5.60
2023-05-19T08:01:05.877Z,8.60
2023-05-19T08:03:53.337Z,8.25
2023-05-19T08:06:42.818Z,5.55
2023-05-19T08:09:30.143Z,8.77
2023-05-19T08:12:17.126Z,8.00
2023-05-19T08:15:04.402Z,6.22
2023-05-19T08:17:53.317Z,4.95
2023-05-19T08:20:40.198Z,6.40
2023-05-19T08:23:27.524Z,5.20
2023-05-19T08:26:14.856Z,7.78
2023-05-19T08:29:02.587Z,5.30
2023-05-19T08:31:49.828Z,3.00
2023-05-19T08:34:38.211Z,5.63
2023-05-19T08:37:25.648Z,4.10
2023-05-19T08:40:18.338Z,5.10
2023-05-19T08:43:05.555Z,5.17
2023-05-19T08:45:54.596Z,4.07
2023-05-19T08:48:44.380Z,4.97
2023-05-19T08:51:37.466Z,4.70
2023-05-19T08:54:27.604Z,5.83
2023-05-19T08:57:15.368Z,4.40
2023-05-19T09:00:05.054Z,4.97
2023-05-19T09:03:00.232Z,6.43
2023-05-19T09:05:58.765Z,6.03
2023-05-19T09:08:48.204Z,3.05
2023-05-19T09:11:35.802Z,2.83
2023-05-19T09:14:23.910Z,7.13
2023-05-19T09:17:12.237Z,5.57
2023-05-19T09:20:04.582Z,4.50
2023-05-19T09:22:51.521Z,5.33
2023-05-19T09:25:48.566Z,2.67
2023-05-19T09:28:36.863Z,6.03
2023-05-19T09:31:23.945Z,7.43
2023-05-19T09:34:15.679Z,5.27
2023-05-19T09:37:02.765Z,7.87
2023-05-19T09:39:52.311Z,4.43
2023-05-19T09:42:42.006Z,5.17
2023-05-19T09:45:30.358Z,3.93
2023-05-19T09:48:17.764Z,6.97
2023-05-19T09:51:06.513Z,4.93
2023-05-19T09:53:54.301Z,3.60
2023-05-19T09:56:41.384Z,5.03
2023-05-19T09:59:33.485Z,3.53
2023-05-19T10:02:21.786Z,4.03
2023-05-19T10:05:09.559Z,9.00
2023-05-19T10:07:56.865Z,3.83
2023-05-19T10:10:44.715Z,5.83
2023-05-19T10:13:33.407Z,4.93
2023-05-19T10:16:23.800Z,6.60
2023-05-19T10:19:11.669Z,3.67
2023-05-19T10:21:58.734Z,5.00
2023-05-19T10:24:46.123Z,4.30
2023-05-19T10:27:35.835Z,7.03
2023-05-19T10:30:27.811Z,4.53
2023-05-19T10:33:18.171Z,3.47
2023-05-19T10:36:35.507Z,4.53
2023-05-19T10:39:27.973Z,5.50
2023-05-19T10:42:17.959Z,6.37
2023-05-19T10:45:11.111Z,2.53
2023-05-19T10:47:58.565Z,6.40
2023-05-19T10:50:47.776Z,3.70
2023-05-19T10:53:35.217Z,4.20
2023-05-19T10:56:34.236Z,5.13
2023-05-19T10:59:37.217Z,5.27
2023-05-19T11:02:42.005Z,6.23
2023-05-19T11:05:31.319Z,8.53
2023-05-19T11:08:33.366Z,6.10
2023-05-19T11:11:23.331Z,6.17
2023-05-19T11:14:12.846Z,7.93
2023-05-19T11:17:01.097Z,4.33
2023-05-19T11:19:54.621Z,10.87
2023-05-19T11:22:41.669Z,7.87
2023-05-19T11:25:44.702Z,9.20
2023-05-19T11:28:31.937Z,8.33
2023-05-19T11:31:23.059Z,5.87
2023-05-19T11:34:10.975Z,7.40
2023-05-19T11:36:59.450Z,9.17
2023-05-19T11:39:47.785Z,7.53
2023-05-19T11:42:37.709Z,7.40
2023-05-19T11:45:27.852Z,6.70
2023-05-19T11:48:16.036Z,5.90
2023-05-19T11:51:03.417Z,9.63
2023-05-19T11:53:51.756Z,7.97
2023-05-19T11:56:41.841Z,7.57
2023-05-19T11:59:35.769Z,9.63
2023-05-19T12:02:26.091Z,8.60
2023-05-19T12:05:20.728Z,8.10
2023-05-19T12:08:08.857Z,10.80
2023-05-19T12:10:56.364Z,8.87
2023-05-19T12:13:43.384Z,5.43
2023-05-19T12:16:38.114Z,9.67
2023-05-19T12:19:25.932Z,8.20
2023-05-19T12:22:13.561Z,8.50
2023-05-19T12:25:01.870Z,5.83
2023-05-19T12:27:49.920Z,7.80
2023-05-19T12:30:37.533Z,4.13
2023-05-19T12:33:26.470Z,5.57
2023-05-19T12:36:14.038Z,2.67
2023-05-19T12:39:01.360Z,4.93
2023-05-19T12:41:48.424Z,4.83
2023-05-19T12:44:38.566Z,4.70
2023-05-19T12:47:31.976Z,7.47
2023-05-19T12:50:20.349Z,4.80
2023-05-19T12:53:10.279Z,5.60
2023-05-19T12:55:57.492Z,6.70
2023-05-19T12:58:46.096Z,5.80
2023-05-19T13:01:33.168Z,6.17
2023-05-19T13:04:20.346Z,2.80
2023-05-19T13:07:09.961Z,5.90
2023-05-19T13:09:56.951Z,3.63
2023-05-19T13:12:44.302Z,3.30
2023-05-19T13:15:34.995Z,9.37
2023-05-19T13:18:22.215Z,5.03
2023-05-19T13:21:09.485Z,3.60
2023-05-19T13:23:58.566Z,7.83
2023-05-19T13:26:46.050Z,4.43
2023-05-19T13:29:33.504Z,6.07
2023-05-19T13:32:20.756Z,6.10
2023-05-19T13:35:08.616Z,3.23
2023-05-19T13:37:55.809Z,4.63
2023-05-19T13:40:45.885Z,4.83
2023-05-19T13:43:33.133Z,3.00
2023-05-19T13:46:22.299Z,4.00
2023-05-19T13:49:16.582Z,2.37
2023-05-19T13:52:03.552Z,2.63
2023-05-19T13:54:50.891Z,2.87
2023-05-19T13:57:40.054Z,4.60
2023-05-19T14:00:28.039Z,4.23
2023-05-19T14:03:16.297Z,2.50
2023-05-19T14:06:03.490Z,3.07
2023-05-19T14:08:50.601Z,1.67
2023-05-19T14:11:37.858Z,6.93
2023-05-19T14:14:26.774Z,3.43
2023-05-19T14:17:14.027Z,1.20
2023-05-19T14:20:01.843Z,3.40
2023-05-19T14:22:48.580Z,1.83
2023-05-19T14:25:36.192Z,1.93
2023-05-19T14:28:23.072Z,2.93
2023-05-19T14:31:14.635Z,1.67
2023-05-19T14:34:02.692Z,3.27
2023-05-19T14:36:50.344Z,1.10
2023-05-19T14:39:37.566Z,1.43
2023-05-19T14:42:24.937Z,3.03
2023-05-19T14:45:12.986Z,2.17
2023-05-19T14:48:01.380Z,1.90
2023-05-19T14:50:49.239Z,2.40
2023-05-19T14:53:36.372Z,3.43
2023-05-19T14:56:23.696Z,5.63
2023-05-19T14:59:10.790Z,1.93
2023-05-19T15:01:57.798Z,6.73
2023-05-19T15:04:46.507Z,2.97
2023-05-19T15:07:33.696Z,6.17
2023-05-19T15:10:21.254Z,1.40
2023-05-19T15:13:08.288Z,3.03
2023-05-19T15:16:08.203Z,2.80
2023-05-19T15:18:56.046Z,4.70
2023-05-19T15:21:45.835Z,2.70
2023-05-19T15:24:33.130Z,4.03
2023-05-19T15:27:20.827Z,3.20
2023-05-19T15:30:08.787Z,3.73
2023-05-19T15:32:56.173Z,1.40
2023-05-19T15:35:43.533Z,1.77
2023-05-19T15:38:32.079Z,3.20
2023-05-19T15:41:20.426Z,1.30
2023-05-19T15:44:07.877Z,2.70
2023-05-19T15:46:55.138Z,1.83
2023-05-19T15:49:42.343Z,2.40
2023-05-19T15:52:29.646Z,2.23
2023-05-19T15:55:18.291Z,2.43
2023-05-19T15:58:05.618Z,3.23
2023-05-19T16:00:52.856Z,2.73
2023-05-19T16:03:40.882Z,2.03
2023-05-19T16:06:28.089Z,1.43
2023-05-19T16:09:15.321Z,1.57
2023-05-19T16:12:04.274Z,2.83
2023-05-19T16:14:51.374Z,1.30
2023-05-19T16:17:38.345Z,2.60
2023-05-19T16:20:28.084Z,2.63
2023-05-19T16:23:15.198Z,2.10
2023-05-19T16:26:02.179Z,1.53
2023-05-19T16:28:50.769Z,0.80
2023-05-19T16:31:37.816Z,6.50
2023-05-19T16:34:25.478Z,1.50
2023-05-19T16:38:08.772Z,3.00
2023-05-19T16:49:35.966Z,2.27
2023-05-19T16:52:23.287Z,11.23
2023-05-19T16:55:11.144Z,2.13
2023-05-19T16:57:58.016Z,2.93
2023-05-19T17:00:45.308Z,2.77
2023-05-19T17:03:32.903Z,3.00
2023-05-19T17:06:21.681Z,1.37
2023-05-19T17:09:09.160Z,3.40
2023-05-19T17:11:56.419Z,6.10
2023-05-19T17:14:44.204Z,3.13
2023-05-19T17:17:31.472Z,2.27
2023-05-19T17:20:18.835Z,4.30
2023-05-19T17:23:07.668Z,5.40
2023-05-19T17:25:55.995Z,3.20
2023-05-19T17:28:43.198Z,3.67
2023-05-19T17:31:30.323Z,1.20
2023-05-19T17:34:17.307Z,1.57
2023-05-19T17:37:04.763Z,4.07
2023-05-19T17:39:53.600Z,3.37
2023-05-19T17:42:40.819Z,2.20
2023-05-19T17:45:27.727Z,3.33
2023-05-19T17:48:14.707Z,1.73
2023-05-19T17:51:03.933Z,1.30
2023-05-19T17:53:52.860Z,2.07
2023-05-19T17:56:43.688Z,0.90
2023-05-19T17:59:31.509Z,1.37
2023-05-19T18:02:19.296Z,1.27
2023-05-19T18:05:07.645Z,3.20
2023-05-19T18:07:55.917Z,1.97
2023-05-19T18:10:43.989Z,7.73
2023-05-19T18:13:32.559Z,4.57
2023-05-19T18:16:19.556Z,3.43
2023-05-19T18:19:07.416Z,1.97
2023-05-19T18:21:54.482Z,3.17
2023-05-19T18:24:41.730Z,2.43
2023-05-19T18:27:29.065Z,1.37
2023-05-19T18:30:17.709Z,1.30
2023-05-19T18:33:05.999Z,2.07
2023-05-19T18:35:53.053Z,2.40
2023-05-19T18:38:40.144Z,3.50
2023-05-19T18:41:27.560Z,2.17
2023-05-19T18:44:14.917Z,2.40
2023-05-19T18:47:03.703Z,1.93
2023-05-19T18:49:51.141Z,1.53
2023-05-19T18:52:38.526Z,1.80
2023-05-19T18:55:25.834Z,2.53
2023-05-19T18:58:13.013Z,1.17
2023-05-19T19:01:00.419Z,1.03
2023-05-19T19:03:49.376Z,1.53
2023-05-19T19:06:36.438Z,2.30
2023-05-19T19:09:23.691Z,1.77
2023-05-19T19:12:11.233Z,3.57
2023-05-19T19:14:58.371Z,1.43
2023-05-19T19:17:45.801Z,1.47
2023-05-19T19:20:34.665Z,1.90
2023-05-19T19:23:21.636Z,2.37
2023-05-19T19:26:09.684Z,1.50
2023-05-19T19:28:57.319Z,1.87
2023-05-19T19:31:44.426Z,3.43
2023-05-19T19:34:31.663Z,1.67
2023-05-19T19:37:20.038Z,2.83
2023-05-19T19:40:08.641Z,3.50
2023-05-19T19:42:55.895Z,1.47
2023-05-19T19:45:42.728Z,3.63
2023-05-19T19:48:30.180Z,1.60
2023-05-19T19:51:17.464Z,1.63
2023-05-19T19:54:06.398Z,1.70
2023-05-19T19:56:53.629Z,1.20
2023-05-19T19:59:40.786Z,1.97
2023-05-19T20:02:27.704Z,1.13
2023-05-19T20:05:15.113Z,1.87
2023-05-19T20:08:02.096Z,2.50
2023-05-19T20:10:50.594Z,2.00
2023-05-19T20:13:37.877Z,4.57
2023-05-19T20:16:25.256Z,1.97
2023-05-19T20:19:12.930Z,3.80
2023-05-19T20:22:00.695Z,1.33
2023-05-19T20:24:48.017Z,1.07
2023-05-19T20:27:36.709Z,1.43
2023-05-19T20:30:24.006Z,1.30
2023-05-19T20:33:12.925Z,0.90
2023-05-19T20:35:59.808Z,1.93
2023-05-19T20:38:48.040Z,0.83
2023-05-19T20:41:35.077Z,0.70
2023-05-19T20:44:23.977Z,2.30
2023-05-19T20:47:11.566Z,0.97
2023-05-19T20:49:58.928Z,3.80
2023-05-19T20:52:46.246Z,3.23
2023-05-19T20:55:33.797Z,1.13
2023-05-19T20:58:20.826Z,0.90
2023-05-19T21:01:09.509Z,1.30
2023-05-19T21:03:56.361Z,3.87
2023-05-19T21:06:43.349Z,3.43
2023-05-19T21:09:30.273Z,1.60
2023-05-19T21:12:17.328Z,2.03
2023-05-19T21:15:06.080Z,2.77
2023-05-19T21:17:54.544Z,3.17
2023-05-19T21:20:41.944Z,2.10
2023-05-19T21:23:29.304Z,1.80
2023-05-19T21:26:16.667Z,1.13
2023-05-19T21:29:03.678Z,2.70
2023-05-19T21:31:52.578Z,1.37
2023-05-19T21:34:41.425Z,1.73
2023-05-19T21:37:28.603Z,2.13
2023-05-19T21:40:15.780Z,1.80
2023-05-19T21:43:03.054Z,1.73
2023-05-19T21:45:50.293Z,2.33
2023-05-19T21:48:37.413Z,1.40
2023-05-19T21:51:26.108Z,1.63
2023-05-19T21:54:12.969Z,2.33
2023-05-19T21:57:00.151Z,2.00
2023-05-19T21:59:47.304Z,2.17
2023-05-19T22:02:34.996Z,6.53
2023-05-19T22:05:22.330Z,3.30
2023-05-19T22:08:10.587Z,1.20
2023-05-19T22:10:57.765Z,2.87
2023-05-19T22:13:45.094Z,1.00
2023-05-19T22:16:32.711Z,1.67
2023-05-19T22:19:20.475Z,2.97
2023-05-19T22:22:14.323Z,2.67
2023-05-19T22:25:03.871Z,3.37
2023-05-19T22:27:51.153Z,1.93
2023-05-19T22:30:41.049Z,2.53
2023-05-19T22:33:28.403Z,3.40
2023-05-19T22:36:16.170Z,2.17
2023-05-19T22:39:03.076Z,2.40
2023-05-19T22:41:51.756Z,3.03
2023-05-19T22:44:38.633Z,3.07
2023-05-19T22:47:25.889Z,1.20
2023-05-19T22:50:13.306Z,1.70
2023-05-19T22:53:00.278Z,1.43
2023-05-19T22:55:47.101Z,1.97
2023-05-19T22:58:35.917Z,2.10
2023-05-19T23:01:23.352Z,1.53
2023-05-19T23:04:11.605Z,5.27
2023-05-19T23:06:58.460Z,1.47
2023-05-19T23:09:45.870Z,1.43
2023-05-19T23:12:32.863Z,1.43
2023-05-19T23:15:21.527Z,2.63
2023-05-19T23:18:08.876Z,1.23
2023-05-19T23:20:56.152Z,1.53
2023-05-19T23:23:42.990Z,1.83
2023-05-19T23:26:30.056Z,3.17
2023-05-19T23:29:17.010Z,1.37
2023-05-19T23:32:06.119Z,1.57
2023-05-19T23:34:53.285Z,1.73
2023-05-19T23:37:40.811Z,1.00
2023-05-19T23:40:28.333Z,1.67
2023-05-19T23:43:15.613Z,2.33
2023-05-19T23:46:02.974Z,1.87
2023-05-19T23:48:51.880Z,4.47
2023-05-19T23:51:39.523Z,1.30
2023-05-19T23:54:26.880Z,2.67
2023-05-19T23:57:14.029Z,2.20
